Aviation Digital Data Service (ADDS)

Output produced by METARs form (2323 UTC 15 February 2019)
found at http://www.aviationweather.gov/metar/data/
 
Forecast for: KAUS (AUSTIN , TX, US)
Text: KAUS 152008Z 1520/1624 21012KT P6SM SCT100 BKN250
Forecast period: 2000 to 2300 UTC 15 February 2019
Forecast type: FROM: standard forecast or significant change
Winds: from the SSW (210 degrees) at 14 MPH (12 knots; 6.2 m/s)
Visibility: 6 or more miles 10+ km)
Ceiling: 25000 feet AGL
Clouds: scattered clouds at 10000 feet AGL
broken clouds at 25000 feet AGL
Weather: no significant weather forecast for this period
Text: FM152300 22007KT P6SM BKN070 BKN250
Forecast period: 2300 UTC 15 February 2019 to 0600 UTC 16 February 2019
Forecast type: FROM: standard forecast or significant change
Winds: from the SW (220 degrees) at 8 MPH (7 knots; 3.6 m/s)
Visibility: 6 or more miles 10+ km)
Ceiling: 7000 feet AGL
Clouds: broken clouds at 7000 feet AGL
broken clouds at 25000 feet AGL
Weather: no significant weather forecast for this period
Text: FM160600 36010KT P6SM SCT070 BKN250
Forecast period: 0600 UTC 16 February 2019 to 0000 UTC 17 February 2019
Forecast type: FROM: standard forecast or significant change
Winds: from the N (360 degrees) at 12 MPH (10 knots; 5.1 m/s)
Visibility: 6 or more miles 10+ km)
Ceiling: 25000 feet AGL
Clouds: scattered clouds at 7000 feet AGL
broken clouds at 25000 feet AGL
Weather: no significant weather forecast for this period